createdAt,value
2019-03-28T00:07:00.715Z,18.70
2019-03-28T00:17:14.758Z,23.87
2019-03-28T00:22:12.620Z,17.47
2019-03-28T00:27:10.449Z,16.87
2019-03-28T00:36:34.799Z,19.77
2019-03-28T00:41:32.593Z,17.23
2019-03-28T00:46:30.132Z,23.07
2019-03-28T00:51:27.825Z,20.33
2019-03-28T00:56:25.798Z,15.83
2019-03-28T01:01:25.369Z,15.83
2019-03-28T01:11:39.013Z,16.13
2019-03-28T01:16:38.127Z,15.10
2019-03-28T01:21:35.807Z,18.20
2019-03-28T01:26:33.538Z,23.77
2019-03-28T01:31:31.947Z,14.77
2019-03-28T01:35:35.578Z,17.43
2019-03-28T01:39:41.665Z,17.13
2019-03-28T01:44:39.438Z,16.27
2019-03-28T01:49:37.215Z,25.50
2019-03-28T01:54:34.964Z,20.43
2019-03-28T01:59:33.467Z,17.77
2019-03-28T02:04:32.989Z,17.50
2019-03-28T02:09:30.714Z,15.77
2019-03-28T02:14:28.558Z,16.33
2019-03-28T02:19:26.417Z,19.33
2019-03-28T02:24:24.222Z,14.97
2019-03-28T02:29:21.873Z,18.40
2019-03-28T02:33:43.337Z,17.50
2019-03-28T02:43:45.531Z,15.57
2019-03-28T02:48:43.519Z,18.37
2019-03-28T02:53:41.306Z,18.93
2019-03-28T02:58:39.302Z,18.00
2019-03-28T03:03:37.178Z,20.83
2019-03-28T03:13:51.146Z,16.13
2019-03-28T03:24:05.058Z,17.10
2019-03-28T03:29:02.589Z,22.07
2019-03-28T03:34:00.177Z,21.90
2019-03-28T03:38:03.901Z,22.60
2019-03-28T03:43:01.846Z,24.63
2019-03-28T03:53:15.472Z,20.70
2019-03-28T03:58:16.250Z,22.37
2019-03-28T04:03:13.039Z,16.30
2019-03-28T04:08:10.656Z,23.43
2019-03-28T04:13:08.325Z,20.40
2019-03-28T04:18:05.889Z,19.97
2019-03-28T04:23:04.011Z,23.13
2019-03-28T04:28:02.423Z,22.47
2019-03-28T04:33:00.527Z,18.03
2019-03-28T04:37:04.120Z,20.07
2019-03-28T04:42:01.741Z,17.83
2019-03-28T04:46:59.556Z,20.57
2019-03-28T04:51:57.366Z,23.43
2019-03-28T04:56:55.198Z,17.87
2019-03-28T05:02:01.285Z,22.17
2019-03-28T05:06:53.558Z,26.13
2019-03-28T05:11:51.104Z,25.87
2019-03-28T05:22:05.141Z,30.13
2019-03-28T05:27:02.826Z,28.20
2019-03-28T05:36:23.088Z,28.40
2019-03-28T05:41:07.570Z,32.63
2019-03-28T05:51:21.552Z,34.20
2019-03-28T05:56:19.316Z,26.43
2019-03-28T06:01:17.195Z,24.70
2019-03-28T06:06:15.015Z,25.23
2019-03-28T06:11:12.664Z,24.20
2019-03-28T06:16:10.524Z,29.90
2019-03-28T06:21:08.796Z,34.57
2019-03-28T06:26:06.525Z,26.10
2019-03-28T06:30:45.759Z,28.57
2019-03-28T06:34:49.457Z,23.87
2019-03-28T06:45:04.018Z,28.37
2019-03-28T06:50:03.067Z,30.10
2019-03-28T07:00:17.139Z,29.00
2019-03-28T07:05:15.016Z,28.60
2019-03-28T07:15:29.108Z,34.30
2019-03-28T07:20:27.335Z,34.07
2019-03-28T07:30:41.166Z,29.37
2019-03-28T07:34:47.077Z,25.03
2019-03-28T07:38:50.679Z,29.37
2019-03-28T07:43:48.995Z,27.23
2019-03-28T07:54:02.952Z,25.83
2019-03-28T07:59:01.388Z,29.23
2019-03-28T08:04:00.449Z,26.87
2019-03-28T08:08:57.926Z,28.43
2019-03-28T08:19:12.046Z,25.83
2019-03-28T08:29:25.704Z,25.47
2019-03-28T08:34:23.457Z,25.03
2019-03-28T08:38:30.875Z,21.27
2019-03-28T08:43:28.762Z,23.90
2019-03-28T08:53:43.787Z,22.23
2019-03-28T08:58:23.084Z,21.07
2019-03-28T09:02:29.028Z,24.50
2019-03-28T09:07:26.731Z,25.77
2019-03-28T09:12:24.365Z,21.60
2019-03-28T09:22:39.134Z,19.63
2019-03-28T09:27:36.793Z,18.27
2019-03-28T09:32:34.346Z,18.43
2019-03-28T09:36:37.920Z,21.23
2019-03-28T09:41:35.931Z,23.40
2019-03-28T09:46:33.568Z,17.83
2019-03-28T09:56:47.310Z,16.80
2019-03-28T10:01:44.877Z,18.63
2019-03-28T10:12:00.511Z,15.33
2019-03-28T10:16:58.261Z,19.73
2019-03-28T10:27:12.018Z,12.90
2019-03-28T10:32:09.731Z,17.63
2019-03-28T10:36:16.069Z,15.67
2019-03-28T10:41:13.784Z,13.27
2019-03-28T10:46:12.218Z,10.27
2019-03-28T10:56:25.895Z,11.37
2019-03-28T11:01:41.423Z,13.50
2019-03-28T11:11:39.630Z,16.50
2019-03-28T11:16:37.646Z,10.87
2019-03-28T11:21:35.911Z,10.90
2019-03-28T11:26:33.594Z,11.17
2019-03-28T11:35:52.937Z,9.23
2019-03-28T11:40:51.595Z,12.37
2019-03-28T11:45:49.187Z,8.97
2019-03-28T11:50:47.776Z,10.33
2019-03-28T11:55:48.647Z,6.30
2019-03-28T12:00:45.127Z,9.50
2019-03-28T12:05:43.848Z,6.70
2019-03-28T12:10:42.097Z,7.93
2019-03-28T12:15:39.860Z,12.00
2019-03-28T12:25:53.775Z,9.10
2019-03-28T12:35:31.795Z,8.53
2019-03-28T12:40:30.531Z,9.63
2019-03-28T12:45:28.140Z,6.53
2019-03-28T12:50:25.786Z,7.50
2019-03-28T12:55:23.338Z,7.60
2019-03-28T13:00:20.766Z,9.90
2019-03-28T13:05:18.384Z,8.50
2019-03-28T13:10:16.294Z,6.73
2019-03-28T13:20:30.162Z,8.77
2019-03-28T13:25:27.832Z,9.70
2019-03-28T13:35:06.027Z,10.50
2019-03-28T13:40:04.392Z,12.63
2019-03-28T13:44:07.933Z,15.13
2019-03-28T13:49:05.726Z,8.37
2019-03-28T13:54:04.151Z,10.97
2019-03-28T13:59:01.896Z,8.43
2019-03-28T14:03:59.577Z,10.27
2019-03-28T14:08:57.276Z,8.60
2019-03-28T14:13:55.104Z,7.43
2019-03-28T14:18:53.118Z,9.67
2019-03-28T14:29:07.242Z,8.43
2019-03-28T14:34:04.879Z,7.30
2019-03-28T14:38:10.698Z,8.40
2019-03-28T14:43:10.760Z,9.07
2019-03-28T14:53:24.275Z,11.33
2019-03-28T14:58:22.135Z,12.70
2019-03-28T15:03:26.446Z,9.00
2019-03-28T15:08:19.912Z,12.23
2019-03-28T15:18:33.813Z,11.80
2019-03-28T15:23:31.453Z,21.50
2019-03-28T15:28:28.851Z,15.00
2019-03-28T15:33:38.599Z,14.17
2019-03-28T15:37:33.992Z,21.20
2019-03-28T15:42:31.543Z,16.40
2019-03-28T15:47:29.174Z,11.57
2019-03-28T15:52:27.565Z,11.40
2019-03-28T15:57:25.351Z,16.50
2019-03-28T16:02:22.839Z,12.50
2019-03-28T16:12:36.646Z,12.07
2019-03-28T16:22:50.626Z,8.50
2019-03-28T16:27:48.405Z,6.70
2019-03-28T16:32:48.064Z,10.90
2019-03-28T16:36:53.942Z,6.80
2019-03-28T16:41:51.684Z,12.10
2019-03-28T16:52:05.908Z,11.60
2019-03-28T17:02:20.327Z,9.90
2019-03-28T17:12:16.260Z,11.23
2019-03-28T17:17:14.128Z,12.80
2019-03-28T17:22:11.838Z,8.90
2019-03-28T17:32:25.771Z,11.73
2019-03-28T17:36:29.745Z,8.50
2019-03-28T17:41:27.792Z,8.97
2019-03-28T17:45:34.734Z,13.60
2019-03-28T17:50:32.717Z,9.33
2019-03-28T17:55:30.638Z,11.87
2019-03-28T18:05:57.093Z,10.97
2019-03-28T18:10:43.913Z,7.60
2019-03-28T18:15:41.939Z,5.43
2019-03-28T18:20:39.642Z,10.07
2019-03-28T18:25:38.215Z,9.10
2019-03-28T18:30:37.482Z,10.67
2019-03-28T18:40:03.827Z,8.97
2019-03-28T18:45:00.549Z,6.53
2019-03-28T18:49:58.390Z,8.73
2019-03-28T18:54:56.127Z,8.57
2019-03-28T18:59:55.017Z,6.27
2019-03-28T19:04:53.141Z,9.10
2019-03-28T19:15:07.144Z,8.40
2019-03-28T19:20:04.725Z,8.00
2019-03-28T19:25:02.144Z,9.33
2019-03-28T19:29:59.829Z,10.60
2019-03-28T19:34:58.735Z,9.13
2019-03-28T19:39:11.095Z,10.07
2019-03-28T19:44:08.713Z,9.23
2019-03-28T19:49:06.426Z,9.33
2019-03-28T19:54:04.371Z,6.70
2019-03-28T19:59:01.962Z,8.90
2019-03-28T20:03:59.602Z,7.47
2019-03-28T20:08:57.299Z,8.87
2019-03-28T20:13:54.977Z,10.53
2019-03-28T20:18:52.970Z,9.27
2019-03-28T20:29:08.727Z,12.43
2019-03-28T20:34:06.943Z,8.53
2019-03-28T20:38:10.488Z,8.77
2019-03-28T20:43:08.223Z,9.50
2019-03-28T20:47:11.997Z,9.20
2019-03-28T20:51:20.700Z,7.90
2019-03-28T20:55:31.932Z,11.67
2019-03-28T20:59:37.785Z,9.40
2019-03-28T21:03:41.872Z,9.30
2019-03-28T21:07:45.823Z,8.47
2019-03-28T21:11:49.432Z,11.77
2019-03-28T21:15:52.981Z,10.60
2019-03-28T21:20:15.922Z,9.93
2019-03-28T21:24:19.474Z,12.13
2019-03-28T21:28:25.194Z,8.67
2019-03-28T21:32:28.965Z,8.87
2019-03-28T21:36:35.800Z,10.83
2019-03-28T21:40:41.880Z,9.30
2019-03-28T21:44:45.409Z,8.70
2019-03-28T21:48:48.990Z,9.43
2019-03-28T21:52:52.680Z,8.83
2019-03-28T21:56:56.230Z,8.90
2019-03-28T22:00:59.745Z,12.73
2019-03-28T22:05:10.971Z,9.00
2019-03-28T22:09:19.379Z,11.70
2019-03-28T22:13:30.192Z,7.73
2019-03-28T22:17:33.808Z,8.90
2019-03-28T22:21:37.372Z,8.67
2019-03-28T22:25:40.885Z,7.17
2019-03-28T22:29:49.950Z,11.83
2019-03-28T22:33:55.986Z,12.73
2019-03-28T22:38:01.684Z,9.80
2019-03-28T22:42:05.307Z,10.23
2019-03-28T22:46:09.752Z,6.60
2019-03-28T22:50:19.192Z,12.87
2019-03-28T22:54:22.727Z,11.27
2019-03-28T22:58:29.272Z,10.30
2019-03-28T23:02:32.818Z,10.13
2019-03-28T23:06:38.883Z,9.93
2019-03-28T23:10:42.494Z,7.80
2019-03-28T23:14:48.335Z,6.50
2019-03-28T23:18:51.889Z,11.90
2019-03-28T23:22:55.442Z,15.17
2019-03-28T23:26:58.947Z,6.17
2019-03-28T23:31:07.993Z,9.10
2019-03-28T23:35:16.860Z,7.53
2019-03-28T23:39:20.446Z,12.70
2019-03-28T23:43:24.047Z,9.67
2019-03-28T23:47:30.355Z,14.57
2019-03-28T23:51:34.035Z,9.93
2019-03-28T23:55:37.596Z,10.70
2019-03-28T23:59:49.825Z,8.87
